Time;durP1;ratioP1;P1;durP2;ratioP2;P2;SDS_P1;SDS_P2;PMS_P1;PMS_P2;Temp;Humidity;BMP_temperature;BMP_pressure;BME280_temperature;BME280_humidity;BME280_pressure;Samples;Min_cycle;Max_cycle;Signal;HPM_P1;HPM_P2
2023/02/16 00:01:59;;;;;;;34.78;18.33;;;;;;;;;;5053884;28;20075;-83
2023/02/16 00:04:28;;;;;;;40.33;19.65;;;;;;;;;;5054002;28;20485;-82
2023/02/16 00:06:56;;;;;;;45.10;21.83;;;;;;;;;;5036275;28;20133;-83
2023/02/16 00:09:23;;;;;;;40.10;19.60;;;;;;;;;;5036107;28;20051;-82
2023/02/16 00:14:38;;;;;;;37.35;19.65;;;;;;;;;;5053819;28;20060;-82
2023/02/16 00:17:06;;;;;;;38.28;20.92;;;;;;;;;;5036490;28;20386;-83
2023/02/16 00:19:38;;;;;;;53.33;23.77;;;;;;;;;;5036125;28;20052;-82
2023/02/16 00:22:06;;;;;;;44.13;22.40;;;;;;;;;;5053769;28;20551;-82
2023/02/16 00:24:33;;;;;;;43.50;20.88;;;;;;;;;;5055842;28;20053;-82
2023/02/16 00:27:01;;;;;;;38.55;20.13;;;;;;;;;;5056776;28;20136;-82
2023/02/16 00:29:33;;;;;;;50.25;23.90;;;;;;;;;;5039797;28;20068;-82
2023/02/16 00:32:01;;;;;;;44.97;22.95;;;;;;;;;;5056789;28;20068;-82
2023/02/16 00:34:29;;;;;;;46.72;22.30;;;;;;;;;;5081106;28;20052;-82
2023/02/16 00:36:57;;;;;;;49.88;23.30;;;;;;;;;;5061817;28;20048;-83
2023/02/16 00:39:25;;;;;;;47.45;22.90;;;;;;;;;;5057742;28;20139;-82
2023/02/16 00:41:54;;;;;;;52.28;24.52;;;;;;;;;;5039748;28;20049;-83
2023/02/16 00:44:32;;;;;;;55.90;26.40;;;;;;;;;;5057408;28;20055;-82
2023/02/16 00:47:18;;;;;;;55.72;27.70;;;;;;;;;;5057742;28;20409;-83
2023/02/16 00:49:46;;;;;;;55.25;25.83;;;;;;;;;;5039634;28;20049;-83
2023/02/16 00:52:19;;;;;;;57.55;26.50;;;;;;;;;;5057102;28;20040;-83
2023/02/16 00:54:47;;;;;;;48.28;24.05;;;;;;;;;;5039655;28;20132;-83
2023/02/16 00:57:17;;;;;;;45.22;23.80;;;;;;;;;;5039960;28;20103;-83
2023/02/16 00:59:44;;;;;;;48.70;24.15;;;;;;;;;;5056916;28;20060;-82
2023/02/16 01:02:12;;;;;;;48.33;24.10;;;;;;;;;;5057076;28;20053;-83
2023/02/16 01:04:39;;;;;;;53.83;26.00;;;;;;;;;;5057139;28;20425;-82
2023/02/16 01:12:43;;;;;;;58.63;26.77;;;;;;;;;;5057466;28;20061;-83
2023/02/16 01:15:12;;;;;;;62.78;28.92;;;;;;;;;;5056698;28;20045;-83
2023/02/16 01:17:40;;;;;;;61.22;27.67;;;;;;;;;;5057081;28;20057;-83
2023/02/16 01:20:14;;;;;;;57.22;26.67;;;;;;;;;;5057316;28;20124;-83
2023/02/16 01:22:41;;;;;;;56.03;26.38;;;;;;;;;;5038535;28;20048;-83
2023/02/16 01:25:08;;;;;;;48.45;25.38;;;;;;;;;;5056168;28;20485;-83
2023/02/16 01:27:36;;;;;;;48.78;25.00;;;;;;;;;;5056311;28;20132;-83
2023/02/16 01:30:04;;;;;;;49.92;24.10;;;;;;;;;;5056848;28;20390;-83
2023/02/16 01:32:32;;;;;;;42.20;21.23;;;;;;;;;;5038387;28;20103;-81
2023/02/16 01:34:59;;;;;;;39.55;20.55;;;;;;;;;;5038763;28;20053;-83
2023/02/16 01:37:26;;;;;;;38.03;19.92;;;;;;;;;;5038695;28;20072;-83
2023/02/16 01:39:53;;;;;;;45.28;21.40;;;;;;;;;;5056514;28;20088;-83
2023/02/16 01:42:59;;;;;;;38.83;19.80;;;;;;;;;;5056040;28;20136;-83
2023/02/16 01:45:29;;;;;;;45.00;21.52;;;;;;;;;;5013161;28;20046;-83
2023/02/16 01:48:01;;;;;;;48.40;22.58;;;;;;;;;;5014691;28;20046;-83
2023/02/16 01:50:37;;;;;;;48.58;22.35;;;;;;;;;;5037242;28;20708;-82
2023/02/16 01:53:24;;;;;;;46.67;23.48;;;;;;;;;;5038811;28;20481;-82
2023/02/16 01:55:55;;;;;;;54.45;24.60;;;;;;;;;;5038312;28;20041;-83
2023/02/16 01:58:33;;;;;;;52.33;24.60;;;;;;;;;;5038862;28;20060;-83
2023/02/16 02:01:00;;;;;;;59.75;25.55;;;;;;;;;;5056691;28;20131;-83
2023/02/16 02:06:19;;;;;;;63.30;26.38;;;;;;;;;;5056276;28;20053;-83
2023/02/16 02:08:48;;;;;;;60.03;26.92;;;;;;;;;;5056036;28;20055;-83
2023/02/16 02:11:26;;;;;;;61.75;27.50;;;;;;;;;;5056945;28;20055;-83
2023/02/16 02:14:07;;;;;;;58.10;27.67;;;;;;;;;;5056389;28;20055;-84
2023/02/16 02:16:34;;;;;;;60.38;27.23;;;;;;;;;;5055635;28;20053;-83
2023/02/16 02:19:01;;;;;;;55.95;26.73;;;;;;;;;;5037834;28;20092;-82
2023/02/16 02:24:36;;;;;;;40.20;22.70;;;;;;;;;;5055955;28;20485;-83
2023/02/16 02:27:23;;;;;;;47.05;24.10;;;;;;;;;;5072829;28;20043;-83
2023/02/16 02:30:14;;;;;;;45.97;22.60;;;;;;;;;;5079273;28;20060;-83
2023/02/16 02:32:53;;;;;;;37.45;20.67;;;;;;;;;;5012748;28;20100;-83
2023/02/16 02:35:42;;;;;;;41.20;21.70;;;;;;;;;;5036187;28;20079;-83
2023/02/16 02:38:16;;;;;;;36.03;20.77;;;;;;;;;;5038159;28;20064;-83
2023/02/16 02:40:56;;;;;;;37.45;21.58;;;;;;;;;;5055196;28;20500;-83
2023/02/16 02:43:38;;;;;;;37.67;21.05;;;;;;;;;;5037946;28;20062;-83
2023/02/16 02:46:11;;;;;;;36.22;19.27;;;;;;;;;;5054908;28;20405;-83
2023/02/16 02:48:38;;;;;;;31.77;19.10;;;;;;;;;;5038269;28;20056;-83
2023/02/16 03:02:23;;;;;;;35.22;19.40;;;;;;;;;;5054692;28;20045;-83
2023/02/16 03:04:52;;;;;;;35.00;19.40;;;;;;;;;;5020892;28;20059;-83
2023/02/16 03:07:45;;;;;;;33.75;19.50;;;;;;;;;;5054923;28;20067;-83
2023/02/16 03:12:56;;;;;;;33.17;18.95;;;;;;;;;;5055026;28;20051;-83
2023/02/16 03:15:24;;;;;;;30.63;17.92;;;;;;;;;;5054408;28;20055;-83
2023/02/16 03:29:16;;;;;;;33.53;18.05;;;;;;;;;;5054424;28;20041;-83
2023/02/16 03:31:44;;;;;;;32.55;18.60;;;;;;;;;;5036919;28;20045;-83
2023/02/16 03:34:12;;;;;;;28.67;17.27;;;;;;;;;;5036582;28;20465;-82
2023/02/16 03:36:43;;;;;;;30.80;17.23;;;;;;;;;;5054421;28;20057;-83
2023/02/16 03:39:10;;;;;;;28.38;16.70;;;;;;;;;;5054680;28;20071;-83
2023/02/16 03:41:49;;;;;;;28.70;17.08;;;;;;;;;;5036552;28;20047;-84
2023/02/16 03:44:17;;;;;;;28.73;17.02;;;;;;;;;;5036783;28;20519;-84
2023/02/16 03:46:44;;;;;;;30.10;17.98;;;;;;;;;;5036625;28;20088;-83
2023/02/16 03:49:11;;;;;;;37.72;19.17;;;;;;;;;;5036835;28;20481;-83
2023/02/16 03:51:39;;;;;;;37.42;19.75;;;;;;;;;;5036777;28;20599;-83
2023/02/16 03:54:06;;;;;;;32.33;17.92;;;;;;;;;;5036343;28;20064;-83
2023/02/16 03:56:33;;;;;;;33.70;19.23;;;;;;;;;;5054685;28;20041;-83
2023/02/16 03:59:00;;;;;;;36.03;18.10;;;;;;;;;;5036277;28;20049;-84
2023/02/16 04:01:28;;;;;;;35.88;18.83;;;;;;;;;;5036885;28;20106;-84
2023/02/16 04:03:55;;;;;;;38.85;18.90;;;;;;;;;;5036533;28;20045;-83
2023/02/16 04:06:23;;;;;;;35.20;18.45;;;;;;;;;;5036950;28;20460;-83
2023/02/16 04:08:50;;;;;;;32.55;18.30;;;;;;;;;;5036708;28;20092;-84
2023/02/16 04:14:03;;;;;;;34.90;17.95;;;;;;;;;;5053979;28;20053;-83
2023/02/16 04:16:30;;;;;;;35.95;18.63;;;;;;;;;;5054336;28;20049;-84
2023/02/16 04:18:57;;;;;;;39.63;18.45;;;;;;;;;;5035785;28;20045;-84
2023/02/16 04:21:26;;;;;;;32.63;17.15;;;;;;;;;;5037069;28;20055;-84
2023/02/16 04:23:54;;;;;;;36.05;19.27;;;;;;;;;;5052129;28;20056;-84
2023/02/16 04:26:21;;;;;;;35.83;18.83;;;;;;;;;;5077218;28;20073;-84
2023/02/16 04:28:48;;;;;;;35.55;18.27;;;;;;;;;;5041275;28;20037;-84
2023/02/16 04:31:16;;;;;;;35.33;17.55;;;;;;;;;;5037132;28;20056;-84
2023/02/16 04:33:43;;;;;;;33.95;18.23;;;;;;;;;;5040121;28;20091;-84
2023/02/16 04:36:10;;;;;;;35.67;18.58;;;;;;;;;;5056696;28;20140;-84
2023/02/16 04:38:37;;;;;;;39.65;19.25;;;;;;;;;;5057543;28;20076;-85
2023/02/16 04:41:05;;;;;;;35.28;17.80;;;;;;;;;;5040819;28;20057;-85
2023/02/16 04:43:32;;;;;;;36.78;19.35;;;;;;;;;;5038140;28;20102;-85
2023/02/16 04:46:00;;;;;;;38.40;18.77;;;;;;;;;;5054424;28;20057;-85
2023/02/16 04:48:27;;;;;;;35.55;18.10;;;;;;;;;;5038516;28;20052;-85
2023/02/16 04:50:54;;;;;;;36.42;18.88;;;;;;;;;;5055204;28;20406;-85
2023/02/16 04:53:21;;;;;;;35.33;17.88;;;;;;;;;;5038003;28;20041;-85
2023/02/16 04:55:49;;;;;;;36.10;18.08;;;;;;;;;;5037413;28;20511;-85
2023/02/16 04:58:16;;;;;;;34.20;17.98;;;;;;;;;;5055807;28;20045;-85
2023/02/16 05:00:43;;;;;;;31.67;17.85;;;;;;;;;;5054471;28;20416;-85
2023/02/16 05:03:11;;;;;;;36.10;17.52;;;;;;;;;;5054080;28;20052;-85
2023/02/16 05:05:38;;;;;;;34.05;17.30;;;;;;;;;;5037377;28;20053;-85
2023/02/16 05:08:05;;;;;;;36.05;18.00;;;;;;;;;;5054810;28;20071;-85
2023/02/16 05:10:32;;;;;;;38.90;17.88;;;;;;;;;;5038344;28;20049;-85
2023/02/16 05:15:46;;;;;;;37.30;19.75;;;;;;;;;;5057606;28;20053;-85
2023/02/16 05:18:13;;;;;;;39.90;19.42;;;;;;;;;;5042381;28;20074;-85
2023/02/16 05:23:26;;;;;;;35.22;18.20;;;;;;;;;;5062361;28;20073;-85
2023/02/16 05:25:55;;;;;;;45.97;20.88;;;;;;;;;;5062960;28;20140;-85
2023/02/16 05:28:22;;;;;;;43.35;19.95;;;;;;;;;;5043896;28;20103;-85
2023/02/16 05:30:49;;;;;;;35.08;18.33;;;;;;;;;;5044607;28;20109;-85
2023/02/16 05:33:17;;;;;;;41.97;19.98;;;;;;;;;;5061548;28;20053;-85
2023/02/16 05:35:44;;;;;;;42.58;20.75;;;;;;;;;;5060990;28;20057;-86
2023/02/16 05:38:11;;;;;;;44.35;19.73;;;;;;;;;;5045172;28;20045;-85
2023/02/16 05:40:39;;;;;;;44.67;19.08;;;;;;;;;;5062184;28;20147;-85
2023/02/16 05:43:06;;;;;;;42.45;18.92;;;;;;;;;;5045361;28;20048;-86
2023/02/16 05:45:33;;;;;;;44.30;20.38;;;;;;;;;;5048200;28;20052;-85
2023/02/16 05:48:00;;;;;;;40.95;20.00;;;;;;;;;;5067297;28;20057;-86
2023/02/16 05:50:28;;;;;;;41.03;20.35;;;;;;;;;;5066025;28;20052;-85
2023/02/16 05:52:55;;;;;;;40.10;19.90;;;;;;;;;;5050445;28;20159;-85
2023/02/16 05:55:22;;;;;;;39.13;19.50;;;;;;;;;;5050215;28;20095;-85
2023/02/16 05:57:50;;;;;;;48.60;20.45;;;;;;;;;;5067205;28;20100;-85
2023/02/16 06:00:17;;;;;;;51.25;21.38;;;;;;;;;;5051288;28;20523;-85
2023/02/16 06:02:44;;;;;;;44.53;21.50;;;;;;;;;;5068671;28;20065;-85
2023/02/16 06:05:12;;;;;;;47.60;21.88;;;;;;;;;;5050760;28;20079;-85
2023/02/16 06:07:40;;;;;;;44.25;20.30;;;;;;;;;;5050901;28;20128;-86
2023/02/16 06:10:07;;;;;;;45.72;20.63;;;;;;;;;;5049660;28;20049;-85
2023/02/16 06:12:34;;;;;;;46.33;20.33;;;;;;;;;;5049548;28;20079;-85
2023/02/16 06:15:02;;;;;;;59.63;22.80;;;;;;;;;;5067636;28;20061;-86
2023/02/16 06:17:29;;;;;;;52.30;21.27;;;;;;;;;;5051389;28;20049;-86
2023/02/16 06:19:56;;;;;;;41.22;20.27;;;;;;;;;;5060117;28;20033;-85
2023/02/16 06:22:24;;;;;;;51.47;23.40;;;;;;;;;;5061846;28;20032;-85
2023/02/16 06:24:54;;;;;;;56.80;22.75;;;;;;;;;;5069848;28;20060;-85
2023/02/16 06:27:21;;;;;;;60.25;25.38;;;;;;;;;;5049132;28;20057;-85
2023/02/16 06:29:48;;;;;;;60.42;24.00;;;;;;;;;;5049287;28;20044;-85
2023/02/16 06:32:17;;;;;;;53.05;23.02;;;;;;;;;;5067426;28;20053;-83
2023/02/16 06:34:44;;;;;;;62.78;25.05;;;;;;;;;;5066617;28;20041;-85
2023/02/16 06:37:12;;;;;;;61.78;25.35;;;;;;;;;;5047342;28;20053;-85
2023/02/16 06:39:39;;;;;;;58.40;24.55;;;;;;;;;;5046799;28;20057;-84
2023/02/16 06:42:06;;;;;;;53.70;23.67;;;;;;;;;;5047029;28;20481;-84
2023/02/16 06:44:33;;;;;;;61.40;25.55;;;;;;;;;;5047843;28;20121;-85
2023/02/16 06:47:00;;;;;;;70.25;27.85;;;;;;;;;;5064931;28;20084;-84
2023/02/16 06:49:29;;;;;;;74.22;28.85;;;;;;;;;;5065121;28;20448;-85
2023/02/16 06:51:56;;;;;;;86.45;31.95;;;;;;;;;;5039101;28;20049;-84
2023/02/16 06:54:23;;;;;;;85.95;30.80;;;;;;;;;;5039264;28;20084;-84
2023/02/16 06:56:50;;;;;;;67.53;29.20;;;;;;;;;;5038556;28;20057;-84
2023/02/16 06:59:18;;;;;;;82.45;30.67;;;;;;;;;;5056470;28;20049;-85
2023/02/16 07:01:45;;;;;;;67.15;28.15;;;;;;;;;;5038503;28;20053;-84
2023/02/16 07:04:12;;;;;;;75.93;29.05;;;;;;;;;;5038846;28;20477;-84
2023/02/16 07:06:40;;;;;;;83.05;31.95;;;;;;;;;;5038967;28;20068;-84
2023/02/16 07:09:07;;;;;;;74.68;30.73;;;;;;;;;;5056407;28;20102;-85
2023/02/16 07:11:37;;;;;;;70.63;30.70;;;;;;;;;;5038878;28;20140;-85
2023/02/16 07:14:05;;;;;;;85.32;37.42;;;;;;;;;;5055947;28;20063;-84
2023/02/16 07:16:32;;;;;;;77.93;32.67;;;;;;;;;;5038723;28;20059;-84
2023/02/16 07:18:59;;;;;;;69.40;31.60;;;;;;;;;;5056627;28;20045;-84
2023/02/16 07:21:27;;;;;;;69.45;29.65;;;;;;;;;;5038857;28;20076;-84
2023/02/16 07:23:54;;;;;;;55.03;26.42;;;;;;;;;;5057290;28;20049;-83
2023/02/16 07:26:21;;;;;;;48.72;24.70;;;;;;;;;;5055916;28;20052;-85
2023/02/16 07:28:49;;;;;;;46.65;23.52;;;;;;;;;;5056256;28;20103;-84
2023/02/16 07:31:16;;;;;;;40.88;21.35;;;;;;;;;;5058124;28;20051;-84
2023/02/16 07:33:44;;;;;;;38.25;21.23;;;;;;;;;;5045740;28;20105;-84
2023/02/16 07:36:11;;;;;;;35.70;19.38;;;;;;;;;;5066450;28;20080;-84
2023/02/16 07:38:40;;;;;;;31.05;18.67;;;;;;;;;;5058329;28;20041;-84
2023/02/16 07:41:08;;;;;;;32.03;18.83;;;;;;;;;;5057531;28;20044;-84
2023/02/16 07:43:37;;;;;;;31.40;18.45;;;;;;;;;;5040506;28;20053;-85
2023/02/16 07:46:05;;;;;;;35.38;19.80;;;;;;;;;;5041354;28;20049;-84
2023/02/16 07:48:32;;;;;;;29.65;17.35;;;;;;;;;;5058684;28;20080;-85
2023/02/16 07:51:00;;;;;;;33.17;19.17;;;;;;;;;;5042887;28;20048;-84
2023/02/16 07:53:27;;;;;;;31.27;18.45;;;;;;;;;;5055398;28;20148;-84
2023/02/16 07:55:55;;;;;;;29.70;17.55;;;;;;;;;;5055907;28;20049;-84
2023/02/16 07:58:26;;;;;;;32.08;19.02;;;;;;;;;;5038240;28;20136;-84
2023/02/16 08:00:57;;;;;;;31.38;18.13;;;;;;;;;;5038430;28;20049;-85
2023/02/16 08:03:24;;;;;;;28.05;16.75;;;;;;;;;;5038643;28;20056;-85
2023/02/16 08:05:51;;;;;;;29.63;17.92;;;;;;;;;;5037795;28;20049;-84
2023/02/16 08:08:19;;;;;;;34.15;18.50;;;;;;;;;;5037362;28;20049;-85
2023/02/16 08:10:46;;;;;;;36.60;20.77;;;;;;;;;;5054584;28;20105;-84
2023/02/16 08:13:14;;;;;;;28.75;17.63;;;;;;;;;;5055213;28;20047;-84
2023/02/16 08:15:44;;;;;;;38.30;23.42;;;;;;;;;;5046820;28;20104;-84
2023/02/16 08:18:11;;;;;;;35.63;21.45;;;;;;;;;;5057565;28;20109;-83
2023/02/16 08:20:39;;;;;;;34.90;19.40;;;;;;;;;;5051247;28;20103;-85
2023/02/16 08:23:26;;;;;;;34.63;18.92;;;;;;;;;;5056094;28;20052;-84
2023/02/16 08:25:53;;;;;;;31.27;18.33;;;;;;;;;;5037616;28;20063;-83
2023/02/16 08:28:20;;;;;;;24.92;16.55;;;;;;;;;;5037214;28;20051;-83
2023/02/16 08:30:48;;;;;;;24.42;15.05;;;;;;;;;;5054728;28;20131;-84
2023/02/16 08:33:16;;;;;;;18.70;13.20;;;;;;;;;;5037280;28;20518;-84
2023/02/16 08:35:44;;;;;;;17.55;12.18;;;;;;;;;;5055655;28;20049;-84
2023/02/16 08:38:11;;;;;;;18.80;12.45;;;;;;;;;;5039496;28;20053;-84
2023/02/16 08:40:38;;;;;;;17.13;11.60;;;;;;;;;;5038059;28;20052;-84
2023/02/16 08:43:05;;;;;;;15.90;11.02;;;;;;;;;;5038355;28;20075;-85
2023/02/16 08:45:33;;;;;;;13.30;9.70;;;;;;;;;;5040571;28;20081;-85
2023/02/16 08:48:01;;;;;;;14.07;10.50;;;;;;;;;;5059690;28;20049;-84
2023/02/16 08:50:28;;;;;;;15.70;10.40;;;;;;;;;;5059370;28;20049;-84
2023/02/16 08:52:57;;;;;;;16.08;11.70;;;;;;;;;;5058926;28;20047;-84
2023/02/16 08:55:24;;;;;;;13.77;10.60;;;;;;;;;;5040714;28;20056;-84
2023/02/16 08:57:51;;;;;;;15.27;11.75;;;;;;;;;;5058856;28;20053;-85
2023/02/16 09:00:34;;;;;;;14.75;11.50;;;;;;;;;;5058608;28;20076;-84
2023/02/16 09:03:03;;;;;;;16.38;11.68;;;;;;;;;;5059600;28;20477;-84
2023/02/16 09:05:30;;;;;;;14.13;11.35;;;;;;;;;;5040899;28;20057;-84
2023/02/16 09:07:58;;;;;;;13.32;11.15;;;;;;;;;;5040704;28;20477;-83
2023/02/16 09:10:25;;;;;;;17.13;11.25;;;;;;;;;;5058337;28;20053;-84
2023/02/16 09:12:53;;;;;;;16.42;11.70;;;;;;;;;;5058524;28;20063;-84
2023/02/16 09:15:21;;;;;;;14.50;11.35;;;;;;;;;;5058423;28;20116;-85
2023/02/16 09:17:48;;;;;;;15.68;11.40;;;;;;;;;;5057852;28;20049;-83
2023/02/16 09:20:16;;;;;;;17.88;11.55;;;;;;;;;;5058673;28;20052;-84
2023/02/16 09:22:45;;;;;;;14.27;11.10;;;;;;;;;;5058566;28;20060;-84
2023/02/16 09:25:14;;;;;;;15.52;12.52;;;;;;;;;;5057712;28;20045;-84
2023/02/16 09:27:42;;;;;;;14.90;11.20;;;;;;;;;;5039253;28;20128;-84
2023/02/16 09:30:09;;;;;;;14.20;11.98;;;;;;;;;;5040862;28;20112;-83
2023/02/16 09:32:37;;;;;;;13.35;10.60;;;;;;;;;;5040242;28;20408;-84
2023/02/16 09:35:04;;;;;;;15.73;11.52;;;;;;;;;;5057781;28;20076;-84
2023/02/16 09:37:32;;;;;;;16.92;11.63;;;;;;;;;;5058369;28;20429;-84
2023/02/16 09:39:59;;;;;;;14.43;11.57;;;;;;;;;;5058465;28;20052;-83
2023/02/16 09:42:42;;;;;;;14.07;11.32;;;;;;;;;;5040530;28;20111;-83
2023/02/16 09:45:14;;;;;;;17.00;11.60;;;;;;;;;;5040300;28;20060;-84
2023/02/16 09:47:43;;;;;;;16.57;11.93;;;;;;;;;;5058404;28;20128;-84
2023/02/16 09:50:19;;;;;;;14.18;11.15;;;;;;;;;;5040412;28;20515;-84
2023/02/16 09:53:07;;;;;;;12.95;11.23;;;;;;;;;;5043345;28;20048;-83
2023/02/16 09:55:46;;;;;;;13.73;11.65;;;;;;;;;;5039923;28;20053;-84
2023/02/16 09:58:27;;;;;;;13.10;11.00;;;;;;;;;;5039986;28;20052;-83
2023/02/16 10:00:57;;;;;;;19.63;11.20;;;;;;;;;;5040577;28;20047;-84
2023/02/16 10:03:40;;;;;;;12.52;10.32;;;;;;;;;;5058380;28;20095;-83
2023/02/16 10:06:13;;;;;;;12.77;10.80;;;;;;;;;;5040041;28;20051;-84
2023/02/16 10:08:46;;;;;;;12.93;11.15;;;;;;;;;;5040155;28;20049;-84
2023/02/16 10:11:49;;;;;;;13.60;11.40;;;;;;;;;;5049185;28;20577;-84
2023/02/16 10:14:24;;;;;;;13.60;11.38;;;;;;;;;;5074355;28;20041;-84
2023/02/16 10:16:55;;;;;;;16.08;12.25;;;;;;;;;;5062020;28;20033;-84
2023/02/16 10:19:27;;;;;;;16.48;11.98;;;;;;;;;;5045182;28;20076;-83
2023/02/16 10:21:58;;;;;;;16.40;11.90;;;;;;;;;;5036091;28;20045;-84
2023/02/16 10:24:27;;;;;;;13.88;11.70;;;;;;;;;;5056964;28;20059;-84
2023/02/16 10:27:01;;;;;;;14.57;12.10;;;;;;;;;;5039931;28;20136;-85
2023/02/16 10:29:28;;;;;;;;;;;;;;;;;;5040256;28;20122;-84
2023/02/16 10:32:01;;;;;;;15.18;11.85;;;;;;;;;;5057397;28;19925;-84
2023/02/16 10:34:39;;;;;;;17.27;12.45;;;;;;;;;;5039631;28;20053;-85
2023/02/16 10:37:15;;;;;;;12.73;11.30;;;;;;;;;;5039435;28;20069;-84
2023/02/16 10:39:47;;;;;;;15.73;12.05;;;;;;;;;;5039588;28;20568;-84
2023/02/16 10:42:24;;;;;;;14.65;11.05;;;;;;;;;;5058043;28;20103;-85
2023/02/16 10:44:57;;;;;;;14.02;11.98;;;;;;;;;;5039310;28;20052;-85
2023/02/16 10:47:39;;;;;;;17.08;12.20;;;;;;;;;;5039812;28;20056;-85
2023/02/16 10:50:07;;;;;;;14.30;11.50;;;;;;;;;;5038061;28;20055;-85
2023/02/16 10:52:39;;;;;;;13.77;12.02;;;;;;;;;;5038290;28;20048;-84
2023/02/16 10:55:06;;;;;;;16.92;12.40;;;;;;;;;;5056409;28;20045;-84
2023/02/16 10:57:33;;;;;;;14.20;11.77;;;;;;;;;;5056132;28;20049;-85
2023/02/16 11:00:02;;;;;;;16.45;12.85;;;;;;;;;;5038501;28;20132;-84
2023/02/16 11:02:43;;;;;;;16.38;12.57;;;;;;;;;;5038521;28;20051;-85
2023/02/16 11:05:35;;;;;;;15.88;12.95;;;;;;;;;;5039031;28;20053;-84
2023/02/16 11:08:02;;;;;;;19.17;12.18;;;;;;;;;;5030519;28;20056;-85
2023/02/16 11:10:35;;;;;;;15.93;13.00;;;;;;;;;;5056332;28;20049;-84
2023/02/16 11:13:03;;;;;;;15.02;11.75;;;;;;;;;;5038440;28;20060;-84
2023/02/16 11:15:31;;;;;;;15.50;12.25;;;;;;;;;;5038556;28;20052;-84
2023/02/16 11:17:59;;;;;;;15.50;12.48;;;;;;;;;;5038241;28;20056;-84
2023/02/16 11:20:35;;;;;;;16.52;13.00;;;;;;;;;;5056182;28;20045;-84
2023/02/16 11:23:21;;;;;;;17.23;13.27;;;;;;;;;;5038032;28;20052;-84
2023/02/16 11:26:07;;;;;;;15.65;12.38;;;;;;;;;;5038514;28;20118;-84
2023/02/16 11:28:36;;;;;;;18.88;13.40;;;;;;;;;;5038426;28;20060;-83
2023/02/16 11:31:10;;;;;;;17.70;13.48;;;;;;;;;;5037854;28;20059;-84
2023/02/16 11:33:39;;;;;;;17.90;13.80;;;;;;;;;;5038310;28;20049;-84
2023/02/16 11:36:28;;;;;;;15.75;13.57;;;;;;;;;;5037698;28;20049;-84
2023/02/16 11:39:03;;;;;;;17.33;12.93;;;;;;;;;;5055365;28;20084;-84
2023/02/16 11:41:32;;;;;;;20.25;12.52;;;;;;;;;;5056473;28;20131;-84
2023/02/16 11:44:00;;;;;;;22.63;12.90;;;;;;;;;;5037721;28;20049;-85
2023/02/16 11:46:30;;;;;;;18.33;12.57;;;;;;;;;;5043047;28;20055;-85
2023/02/16 11:49:17;;;;;;;14.57;12.43;;;;;;;;;;5049311;28;20052;-82
2023/02/16 11:51:44;;;;;;;15.45;12.93;;;;;;;;;;5050385;28;20089;-82
2023/02/16 11:54:15;;;;;;;14.65;12.18;;;;;;;;;;5049972;28;20119;-81
2023/02/16 11:56:44;;;;;;;12.93;11.07;;;;;;;;;;5050134;28;20095;-82
2023/02/16 11:59:15;;;;;;;16.02;12.40;;;;;;;;;;5048368;28;20481;-82
2023/02/16 12:02:03;;;;;;;14.57;12.02;;;;;;;;;;5065573;28;20048;-81
2023/02/16 12:04:41;;;;;;;16.15;11.18;;;;;;;;;;5064653;28;20577;-81
2023/02/16 12:07:15;;;;;;;13.57;11.32;;;;;;;;;;5066454;28;20052;-82
2023/02/16 12:09:57;;;;;;;13.63;11.52;;;;;;;;;;5048883;28;20128;-82
2023/02/16 12:12:43;;;;;;;13.98;11.30;;;;;;;;;;5060565;28;20033;-81
2023/02/16 12:15:30;;;;;;;14.80;11.13;;;;;;;;;;5059963;28;20033;-82
2023/02/16 12:18:21;;;;;;;14.65;11.10;;;;;;;;;;5049576;28;20113;-82
2023/02/16 12:21:07;;;;;;;19.02;12.10;;;;;;;;;;5026236;28;20053;-81
2023/02/16 12:23:40;;;;;;;13.55;11.07;;;;;;;;;;5069586;28;20061;-83
2023/02/16 12:26:21;;;;;;;13.93;10.97;;;;;;;;;;5070273;28;20072;-83
2023/02/16 12:29:00;;;;;;;13.05;10.02;;;;;;;;;;5052387;28;20056;-83
2023/02/16 12:31:33;;;;;;;15.48;10.55;;;;;;;;;;5052543;28;20049;-83
2023/02/16 12:34:09;;;;;;;14.63;10.73;;;;;;;;;;5070014;28;20056;-83
2023/02/16 12:36:51;;;;;;;12.60;10.38;;;;;;;;;;5069613;28;20108;-82
2023/02/16 12:39:18;;;;;;;11.82;9.90;;;;;;;;;;5051850;28;20045;-83
2023/02/16 12:41:48;;;;;;;11.52;10.18;;;;;;;;;;5052371;28;20075;-83
2023/02/16 12:44:18;;;;;;;13.55;10.23;;;;;;;;;;5068983;28;20056;-83
2023/02/16 12:46:48;;;;;;;12.07;10.32;;;;;;;;;;5069057;28;20113;-83
2023/02/16 12:49:15;;;;;;;14.18;10.52;;;;;;;;;;5046404;28;20051;-83
2023/02/16 12:51:45;;;;;;;12.60;10.20;;;;;;;;;;5040672;28;20063;-83
2023/02/16 12:54:19;;;;;;;12.38;10.38;;;;;;;;;;5040631;28;20049;-83
2023/02/16 12:56:54;;;;;;;16.60;11.07;;;;;;;;;;5058467;28;20078;-82
2023/02/16 12:59:23;;;;;;;17.17;11.52;;;;;;;;;;5041102;28;20081;-83
2023/02/16 13:01:52;;;;;;;16.70;11.95;;;;;;;;;;5057961;28;20493;-83
2023/02/16 13:04:38;;;;;;;14.32;11.13;;;;;;;;;;5040453;28;20049;-82
2023/02/16 13:07:26;;;;;;;19.05;13.82;;;;;;;;;;5058208;28;20051;-83
2023/02/16 13:10:13;;;;;;;22.40;14.52;;;;;;;;;;5057856;28;20048;-83
2023/02/16 13:12:49;;;;;;;13.50;9.95;;;;;;;;;;5040285;28;20045;-83
2023/02/16 13:15:19;;;;;;;14.68;10.63;;;;;;;;;;5040266;28;20499;-83
2023/02/16 13:17:55;;;;;;;16.02;11.45;;;;;;;;;;5040747;28;20045;-83
2023/02/16 13:20:23;;;;;;;14.73;11.13;;;;;;;;;;5059054;28;20451;-84
2023/02/16 13:23:11;;;;;;;13.70;9.90;;;;;;;;;;5039881;28;20511;-83
2023/02/16 13:25:56;;;;;;;12.68;9.57;;;;;;;;;;5039723;28;20499;-83
2023/02/16 13:28:39;;;;;;;13.70;9.50;;;;;;;;;;5057470;28;20147;-83
2023/02/16 13:31:06;;;;;;;12.43;9.57;;;;;;;;;;5039350;28;20124;-84
2023/02/16 13:33:52;;;;;;;20.52;9.60;;;;;;;;;;5040005;28;20048;-83
2023/02/16 13:36:26;;;;;;;11.85;9.45;;;;;;;;;;5039652;28;20425;-82
2023/02/16 13:39:08;;;;;;;11.68;9.05;;;;;;;;;;5058345;28;20044;-82
2023/02/16 13:41:51;;;;;;;11.48;9.10;;;;;;;;;;5057560;28;20048;-83
2023/02/16 13:44:20;;;;;;;19.52;9.48;;;;;;;;;;5040772;28;20489;-83
2023/02/16 13:46:51;;;;;;;12.70;9.93;;;;;;;;;;5057090;28;20080;-83
2023/02/16 13:49:28;;;;;;;14.23;9.90;;;;;;;;;;5040091;28;20044;-83
2023/02/16 13:51:55;;;;;;;14.57;9.48;;;;;;;;;;5056773;28;20049;-83
2023/02/16 13:54:26;;;;;;;12.10;9.20;;;;;;;;;;5056844;28;20057;-83
2023/02/16 13:56:54;;;;;;;14.32;9.13;;;;;;;;;;5039318;28;20056;-83
2023/02/16 13:59:21;;;;;;;13.55;9.32;;;;;;;;;;5039371;28;20048;-83
2023/02/16 14:01:53;;;;;;;12.05;9.88;;;;;;;;;;5039203;28;20047;-83
2023/02/16 14:04:26;;;;;;;13.25;9.98;;;;;;;;;;5057165;28;20136;-83
2023/02/16 14:07:02;;;;;;;18.40;10.80;;;;;;;;;;5069340;28;20092;-83
2023/02/16 14:09:32;;;;;;;13.55;9.93;;;;;;;;;;5061011;28;20045;-82
2023/02/16 14:12:01;;;;;;;15.60;10.38;;;;;;;;;;5069362;28;20088;-83
2023/02/16 14:14:31;;;;;;;15.77;10.05;;;;;;;;;;5057274;28;20057;-82
2023/02/16 14:17:23;;;;;;;14.98;10.32;;;;;;;;;;5039989;28;20056;-82
2023/02/16 14:20:10;;;;;;;13.13;10.23;;;;;;;;;;5038825;28;20055;-83
2023/02/16 14:22:43;;;;;;;14.25;10.15;;;;;;;;;;5056893;28;20136;-83
2023/02/16 14:25:22;;;;;;;13.82;10.23;;;;;;;;;;5056528;28;20501;-83
2023/02/16 14:27:50;;;;;;;15.05;11.02;;;;;;;;;;5039231;28;20471;-83
2023/02/16 14:30:20;;;;;;;17.92;10.02;;;;;;;;;;5056994;28;20450;-83
2023/02/16 14:32:59;;;;;;;13.38;10.10;;;;;;;;;;5038644;28;20057;-82
2023/02/16 14:35:34;;;;;;;17.52;11.20;;;;;;;;;;5057147;28;20128;-84
2023/02/16 14:38:03;;;;;;;19.38;11.70;;;;;;;;;;5059994;28;20033;-83
2023/02/16 14:40:49;;;;;;;16.65;11.27;;;;;;;;;;5040761;28;20059;-83
2023/02/16 14:43:33;;;;;;;16.80;11.32;;;;;;;;;;5055852;28;20053;-83
2023/02/16 14:46:19;;;;;;;17.90;12.50;;;;;;;;;;5058740;28;20053;-83
2023/02/16 14:49:06;;;;;;;18.55;11.88;;;;;;;;;;5039618;28;20106;-83
2023/02/16 14:51:43;;;;;;;20.42;12.05;;;;;;;;;;5039373;28;20416;-82
2023/02/16 14:54:34;;;;;;;15.82;11.40;;;;;;;;;;5057707;28;20516;-83
2023/02/16 14:57:03;;;;;;;16.65;11.70;;;;;;;;;;5035885;28;20044;-82
2023/02/16 14:59:37;;;;;;;18.90;11.68;;;;;;;;;;5043039;28;20053;-82
2023/02/16 15:02:24;;;;;;;20.15;12.88;;;;;;;;;;5042888;28;20120;-82
2023/02/16 15:04:51;;;;;;;24.30;13.40;;;;;;;;;;5043250;28;20402;-83
2023/02/16 15:07:20;;;;;;;22.30;14.43;;;;;;;;;;5060160;28;20071;-83
2023/02/16 15:09:49;;;;;;;23.38;13.50;;;;;;;;;;5038094;28;20509;-83
2023/02/16 15:12:22;;;;;;;39.15;22.60;;;;;;;;;;5037578;28;20055;-83
2023/02/16 15:14:55;;;;;;;19.65;14.15;;;;;;;;;;5055178;28;20057;-83
2023/02/16 15:17:25;;;;;;;24.33;13.95;;;;;;;;;;5055494;28;20052;-83
2023/02/16 15:19:54;;;;;;;38.45;23.08;;;;;;;;;;5037719;28;20057;-83
2023/02/16 15:22:22;;;;;;;21.88;13.98;;;;;;;;;;5037342;28;20076;-83
2023/02/16 15:24:56;;;;;;;19.60;13.43;;;;;;;;;;5054566;28;20048;-84
2023/02/16 15:27:23;;;;;;;20.77;13.80;;;;;;;;;;5055062;28;20052;-83
2023/02/16 15:30:04;;;;;;;22.02;14.48;;;;;;;;;;5054944;28;20049;-83
2023/02/16 15:32:32;;;;;;;25.35;14.65;;;;;;;;;;5055164;28;20053;-84